createdAt,value
2022-12-03T00:00:41.528Z,-0.10
2022-12-03T00:03:27.054Z,-0.10
2022-12-03T00:06:12.518Z,-0.09
2022-12-03T00:08:58.135Z,-0.08
2022-12-03T00:11:44.325Z,-0.08
2022-12-03T00:14:29.659Z,-0.07
2022-12-03T00:17:14.845Z,-0.17
2022-12-03T00:20:00.737Z,-0.21
2022-12-03T00:22:46.040Z,-0.21
2022-12-03T00:25:31.983Z,-0.18
2022-12-03T00:28:17.687Z,-0.18
2022-12-03T00:31:03.231Z,-0.07
2022-12-03T00:33:50.203Z,-0.03
2022-12-03T00:36:36.079Z,-0.01
2022-12-03T00:39:21.499Z,-0.01
2022-12-03T00:42:06.982Z,0.01
2022-12-03T00:44:53.651Z,0.03
2022-12-03T00:47:39.438Z,0.02
2022-12-03T00:50:25.062Z,0.03
2022-12-03T00:53:10.728Z,0.04
2022-12-03T00:55:56.711Z,0.05
2022-12-03T00:58:42.328Z,0.05
2022-12-03T01:01:28.093Z,0.05
2022-12-03T01:04:13.822Z,0.06
2022-12-03T01:07:00.624Z,0.07
2022-12-03T01:09:46.739Z,0.07
2022-12-03T01:12:32.201Z,-0.05
2022-12-03T01:15:17.662Z,-0.06
2022-12-03T01:18:03.131Z,-0.07
2022-12-03T01:20:48.672Z,-0.06
2022-12-03T01:23:34.363Z,-0.05
2022-12-03T01:26:20.212Z,-0.05
2022-12-03T01:29:05.874Z,-0.04
2022-12-03T01:32:09.899Z,-0.04
2022-12-03T01:34:56.280Z,-0.04
2022-12-03T01:37:42.105Z,-0.04
2022-12-03T01:40:27.665Z,-0.03
2022-12-03T01:43:13.218Z,-0.02
2022-12-03T01:45:58.771Z,-0.04
2022-12-03T01:48:46.121Z,0.03
2022-12-03T01:51:31.957Z,0.10
2022-12-03T01:54:21.261Z,0.12
2022-12-03T01:57:19.342Z,0.12
2022-12-03T02:00:05.947Z,0.14
2022-12-03T02:02:57.716Z,0.13
2022-12-03T02:05:43.262Z,0.14
2022-12-03T02:08:34.642Z,0.13
2022-12-03T02:11:26.716Z,0.15
2022-12-03T02:14:15.805Z,0.15
2022-12-03T02:17:01.364Z,0.15
2022-12-03T02:19:48.226Z,0.15
2022-12-03T02:22:47.676Z,0.15
2022-12-03T02:25:35.810Z,0.17
2022-12-03T02:28:21.464Z,0.18
2022-12-03T02:31:07.321Z,0.18
2022-12-03T02:33:52.898Z,0.17
2022-12-03T02:36:39.982Z,0.18
2022-12-03T02:39:25.468Z,0.18
2022-12-03T02:42:29.671Z,0.18
2022-12-03T02:45:22.794Z,0.18
2022-12-03T02:48:14.131Z,0.20
2022-12-03T02:51:02.475Z,0.19
2022-12-03T02:53:50.403Z,0.19
2022-12-03T02:56:36.233Z,0.19
2022-12-03T02:59:21.817Z,0.20
2022-12-03T03:02:07.774Z,0.19
2022-12-03T03:04:56.259Z,0.21
2022-12-03T03:07:42.163Z,0.21
2022-12-03T03:10:29.353Z,0.20
2022-12-03T03:13:18.271Z,0.20
2022-12-03T03:16:08.119Z,0.20
2022-12-03T03:18:53.863Z,0.20
2022-12-03T03:21:39.064Z,0.20
2022-12-03T03:24:25.676Z,0.19
2022-12-03T03:27:11.451Z,0.18
2022-12-03T03:29:58.908Z,0.19
2022-12-03T03:32:44.342Z,0.19
2022-12-03T03:35:29.904Z,0.19
2022-12-03T03:38:17.570Z,0.17
2022-12-03T03:41:05.712Z,0.18
2022-12-03T03:43:51.240Z,0.17
2022-12-03T03:46:37.729Z,0.17
2022-12-03T03:49:23.508Z,0.17
2022-12-03T03:52:11.818Z,0.17
2022-12-03T03:54:57.769Z,0.16
2022-12-03T03:57:43.605Z,0.15
2022-12-03T04:00:30.594Z,0.13
2022-12-03T04:03:16.359Z,0.02
2022-12-03T04:06:02.140Z,-0.03
2022-12-03T04:08:47.803Z,-0.03
2022-12-03T04:11:52.109Z,-0.03
2022-12-03T04:14:38.069Z,-0.04
2022-12-03T04:17:23.757Z,-0.05
2022-12-03T04:20:09.334Z,-0.07
2022-12-03T04:22:54.923Z,-0.08
2022-12-03T04:25:58.779Z,-0.08
2022-12-03T04:28:50.847Z,-0.08
2022-12-03T04:31:55.500Z,-0.07
2022-12-03T04:34:59.724Z,-0.06
2022-12-03T04:37:45.255Z,-0.08
2022-12-03T04:40:49.938Z,-0.09
2022-12-03T04:43:56.036Z,-0.10
2022-12-03T04:46:41.348Z,-0.12
2022-12-03T04:49:26.776Z,-0.14
2022-12-03T04:52:14.506Z,-0.18
2022-12-03T04:55:00.278Z,-0.19
2022-12-03T04:57:45.701Z,-0.20
2022-12-03T05:00:31.278Z,-0.21
2022-12-03T05:03:16.662Z,-0.22
2022-12-03T05:06:02.019Z,-0.24
2022-12-03T05:08:47.593Z,-0.24
2022-12-03T05:11:33.144Z,-0.26
2022-12-03T05:14:18.784Z,-0.29
2022-12-03T05:17:05.074Z,-0.28
2022-12-03T05:20:09.025Z,-0.28
2022-12-03T05:22:54.729Z,-0.30
2022-12-03T05:25:41.636Z,-0.30
2022-12-03T05:28:27.369Z,-0.31
2022-12-03T05:31:12.881Z,-0.31
2022-12-03T05:33:58.224Z,-0.31
2022-12-03T05:36:43.558Z,-0.32
2022-12-03T05:39:29.171Z,-0.34
2022-12-03T05:42:33.227Z,-0.35
2022-12-03T05:45:19.885Z,-0.34
2022-12-03T05:48:07.395Z,-0.36
2022-12-03T05:50:53.146Z,-0.37
2022-12-03T05:53:38.394Z,-0.35
2022-12-03T05:56:24.019Z,-0.35
2022-12-03T05:59:09.315Z,-0.34
2022-12-03T06:01:54.799Z,-0.35
2022-12-03T06:04:40.029Z,-0.35
2022-12-03T06:07:25.713Z,-0.35
2022-12-03T06:10:13.531Z,-0.35
2022-12-03T06:12:59.210Z,-0.35
2022-12-03T06:15:44.865Z,-0.36
2022-12-03T06:18:30.403Z,-0.36
2022-12-03T06:21:15.830Z,-0.37
2022-12-03T06:24:01.606Z,-0.37
2022-12-03T06:26:46.914Z,-0.37
2022-12-03T06:29:33.457Z,-0.37
2022-12-03T06:32:19.126Z,-0.36
2022-12-03T06:35:04.719Z,-0.37
2022-12-03T06:37:50.693Z,-0.36
2022-12-03T06:40:38.300Z,-0.37
2022-12-03T06:43:23.613Z,-0.40
2022-12-03T06:46:09.307Z,-0.41
2022-12-03T06:48:54.650Z,-0.42
2022-12-03T06:51:40.195Z,-0.43
2022-12-03T06:54:25.917Z,-0.43
2022-12-03T06:57:12.198Z,-0.44
2022-12-03T06:59:58.126Z,-0.45
2022-12-03T07:02:45.180Z,-0.45
2022-12-03T07:05:31.973Z,-0.46
2022-12-03T07:08:17.406Z,-0.45
2022-12-03T07:11:02.931Z,-0.47
2022-12-03T07:13:48.645Z,-0.45
2022-12-03T07:16:38.200Z,-0.44
2022-12-03T07:19:29.038Z,-0.42
2022-12-03T07:22:17.547Z,-0.41
2022-12-03T07:25:03.259Z,-0.42
2022-12-03T07:27:48.657Z,-0.43
2022-12-03T07:30:34.010Z,-0.41
2022-12-03T07:33:19.494Z,-0.43
2022-12-03T07:36:05.346Z,-0.42
2022-12-03T07:38:51.107Z,-0.41
2022-12-03T07:41:36.906Z,-0.41
2022-12-03T07:44:22.848Z,-0.39
2022-12-03T07:47:08.616Z,-0.37
2022-12-03T07:49:53.860Z,-0.38
2022-12-03T07:52:39.864Z,-0.36
2022-12-03T07:55:26.050Z,-0.35
2022-12-03T07:58:11.379Z,-0.35
2022-12-03T08:00:57.551Z,-0.34
2022-12-03T08:03:43.252Z,-0.35
2022-12-03T08:06:29.140Z,-0.34
2022-12-03T08:09:16.455Z,-0.33
2022-12-03T08:12:13.135Z,-0.33
2022-12-03T08:14:59.077Z,-0.33
2022-12-03T08:17:47.462Z,-0.33
2022-12-03T08:20:37.592Z,-0.33
2022-12-03T08:23:25.258Z,-0.29
2022-12-03T08:26:36.930Z,-0.26
2022-12-03T08:29:22.392Z,-0.24
2022-12-03T08:32:11.392Z,-0.23
2022-12-03T08:34:57.395Z,-0.22
2022-12-03T08:37:43.464Z,-0.20
2022-12-03T08:40:51.208Z,-0.19
2022-12-03T08:43:42.449Z,-0.20
2022-12-03T08:46:28.157Z,-0.19
2022-12-03T08:49:14.744Z,-0.19
2022-12-03T08:52:01.779Z,-0.17
2022-12-03T08:54:53.186Z,-0.14
2022-12-03T08:57:41.837Z,-0.09
2022-12-03T09:00:27.249Z,-0.07
2022-12-03T09:03:18.919Z,-0.04
2022-12-03T09:06:04.879Z,-0.02
2022-12-03T09:08:51.731Z,-0.03
2022-12-03T09:11:37.966Z,-0.06
2022-12-03T09:14:23.688Z,-0.05
2022-12-03T09:17:09.421Z,-0.06
2022-12-03T09:19:54.942Z,-0.08
2022-12-03T09:22:40.711Z,-0.07
2022-12-03T09:25:26.157Z,-0.05
2022-12-03T09:28:12.189Z,-0.07
2022-12-03T09:30:58.081Z,-0.06
2022-12-03T09:33:44.771Z,-0.04
2022-12-03T09:36:30.652Z,-0.02
2022-12-03T09:39:17.515Z,0.01
2022-12-03T09:42:03.493Z,0.01
2022-12-03T09:44:49.356Z,0.02
2022-12-03T09:47:35.326Z,0.05
2022-12-03T09:50:27.964Z,0.04
2022-12-03T09:53:19.799Z,0.04
2022-12-03T09:56:06.468Z,0.07
2022-12-03T09:58:52.643Z,0.10
2022-12-03T10:01:40.589Z,0.11
2022-12-03T10:04:28.648Z,0.11
2022-12-03T10:07:14.550Z,0.13
2022-12-03T10:10:00.196Z,0.15
2022-12-03T10:12:46.855Z,0.13
2022-12-03T10:15:32.886Z,0.11
2022-12-03T10:18:30.533Z,0.10
2022-12-03T10:21:36.618Z,0.12
2022-12-03T10:24:29.759Z,0.12
2022-12-03T10:27:24.191Z,0.11
2022-12-03T10:30:23.764Z,0.10
2022-12-03T10:33:19.010Z,0.12
2022-12-03T10:36:26.855Z,0.10
2022-12-03T10:39:17.314Z,0.11
2022-12-03T10:42:16.429Z,0.10
2022-12-03T10:45:21.091Z,0.07
2022-12-03T10:48:20.437Z,0.09
2022-12-03T10:51:22.697Z,0.11
2022-12-03T10:54:21.134Z,0.12
2022-12-03T10:57:07.707Z,0.14
2022-12-03T10:59:53.109Z,0.17
2022-12-03T11:02:38.962Z,0.17
2022-12-03T11:05:28.032Z,0.19
2022-12-03T11:08:25.613Z,0.21
2022-12-03T11:11:23.639Z,0.23
2022-12-03T11:14:10.793Z,0.24
2022-12-03T11:16:56.696Z,0.25
2022-12-03T11:19:45.508Z,0.27
2022-12-03T11:22:46.553Z,0.28
2022-12-03T11:25:46.184Z,0.29
2022-12-03T11:28:32.951Z,0.30
2022-12-03T11:31:38.255Z,0.30
2022-12-03T11:34:41.070Z,0.28
2022-12-03T11:37:27.535Z,0.29
2022-12-03T11:40:19.038Z,0.30
2022-12-03T11:43:05.537Z,0.29
2022-12-03T11:45:51.048Z,0.29
2022-12-03T11:48:44.993Z,0.30
2022-12-03T11:51:32.130Z,0.30
2022-12-03T11:54:21.515Z,0.31
2022-12-03T11:57:34.403Z,0.30
2022-12-03T12:00:22.580Z,0.32
2022-12-03T12:03:26.874Z,0.31
2022-12-03T12:06:15.859Z,0.28
2022-12-03T12:09:03.761Z,0.29
2022-12-03T12:11:49.200Z,0.29
2022-12-03T12:14:34.883Z,0.28
2022-12-03T12:17:30.995Z,0.27
2022-12-03T12:20:25.859Z,0.25
2022-12-03T12:23:28.074Z,0.23
2022-12-03T12:26:14.994Z,0.23
2022-12-03T12:29:00.973Z,0.22
2022-12-03T12:32:11.065Z,0.22
2022-12-03T12:35:12.478Z,0.23
2022-12-03T12:38:07.700Z,0.24
2022-12-03T12:40:53.562Z,0.25
2022-12-03T12:43:42.379Z,0.25
2022-12-03T12:46:47.426Z,0.27
2022-12-03T12:49:33.574Z,0.27
2022-12-03T12:52:19.299Z,0.28
2022-12-03T12:55:09.833Z,0.29
2022-12-03T12:58:05.802Z,0.29
2022-12-03T13:00:54.615Z,0.28
2022-12-03T13:03:40.503Z,0.26
2022-12-03T13:06:29.261Z,0.27
2022-12-03T13:09:27.513Z,0.25
2022-12-03T13:12:21.299Z,0.22
2022-12-03T13:15:38.148Z,0.21
2022-12-03T13:18:46.071Z,0.20
2022-12-03T13:21:38.882Z,0.21
2022-12-03T13:24:52.122Z,0.21
2022-12-03T13:27:37.513Z,0.21
2022-12-03T13:30:23.200Z,0.19
2022-12-03T13:36:28.034Z,0.15
2022-12-03T13:39:27.470Z,0.12
2022-12-03T13:42:41.571Z,0.11
2022-12-03T13:45:34.595Z,0.11
2022-12-03T13:48:24.216Z,0.11
2022-12-03T13:51:32.333Z,0.11
2022-12-03T13:54:26.316Z,0.13
2022-12-03T13:57:12.654Z,0.14
2022-12-03T14:00:23.477Z,0.15
2022-12-03T14:03:09.459Z,0.17
2022-12-03T14:05:55.163Z,0.19
2022-12-03T14:08:40.941Z,0.18
2022-12-03T14:11:45.276Z,0.17
2022-12-03T14:14:30.814Z,0.17
2022-12-03T14:17:17.263Z,0.18
2022-12-03T14:20:04.090Z,0.18
2022-12-03T14:22:56.310Z,0.17
2022-12-03T14:25:44.656Z,0.18
2022-12-03T14:28:30.165Z,0.18
2022-12-03T14:31:15.926Z,0.19
2022-12-03T14:34:03.975Z,0.20
2022-12-03T14:36:49.791Z,0.21
2022-12-03T14:39:37.243Z,0.20
2022-12-03T14:42:22.453Z,0.19
2022-12-03T14:45:08.554Z,0.20
2022-12-03T14:47:53.892Z,0.20
2022-12-03T14:50:39.457Z,0.20
2022-12-03T14:53:27.416Z,0.19
2022-12-03T14:56:13.669Z,0.20
2022-12-03T14:58:59.483Z,0.21
2022-12-03T15:01:45.623Z,0.21
2022-12-03T15:04:31.045Z,0.22
2022-12-03T15:07:16.560Z,0.23
2022-12-03T15:10:02.018Z,0.23
2022-12-03T15:12:47.313Z,0.24
2022-12-03T15:15:32.968Z,0.24
2022-12-03T15:18:18.773Z,0.24
2022-12-03T15:21:04.151Z,0.25
2022-12-03T15:23:49.750Z,0.26
2022-12-03T15:26:35.215Z,0.25
2022-12-03T15:29:21.271Z,0.27
2022-12-03T15:32:06.528Z,0.28
2022-12-03T15:34:52.114Z,0.29
2022-12-03T15:37:37.944Z,0.30
2022-12-03T15:40:24.472Z,0.30
2022-12-03T15:43:10.329Z,0.31
2022-12-03T15:45:56.263Z,0.31
2022-12-03T15:48:42.282Z,0.30
2022-12-03T15:51:28.044Z,0.31
2022-12-03T15:54:13.547Z,0.34
2022-12-03T15:56:59.269Z,0.35
2022-12-03T15:59:45.360Z,0.34
2022-12-03T16:02:34.070Z,0.36
2022-12-03T16:05:20.112Z,0.38
2022-12-03T16:08:06.012Z,0.38
2022-12-03T16:10:51.423Z,0.39
2022-12-03T16:13:37.065Z,0.40
2022-12-03T16:16:22.802Z,0.41
2022-12-03T16:19:08.490Z,0.41
2022-12-03T16:21:54.494Z,0.43
2022-12-03T16:24:40.108Z,0.44
2022-12-03T16:27:26.109Z,0.45
2022-12-03T16:30:12.339Z,0.44
2022-12-03T16:32:57.585Z,0.44
2022-12-03T16:35:43.051Z,0.44
2022-12-03T16:38:28.719Z,0.44
2022-12-03T16:41:14.255Z,0.46
2022-12-03T16:44:02.744Z,0.47
2022-12-03T16:46:48.133Z,0.48
2022-12-03T16:49:33.500Z,0.50
2022-12-03T16:52:19.086Z,0.50
2022-12-03T16:55:04.718Z,0.51
2022-12-03T16:57:50.078Z,0.54
2022-12-03T17:00:35.553Z,0.55
2022-12-03T17:03:22.853Z,0.54
2022-12-03T17:06:08.621Z,0.55
2022-12-03T17:08:57.129Z,0.55
2022-12-03T17:11:42.683Z,0.57
2022-12-03T17:14:32.975Z,0.57
2022-12-03T17:17:18.836Z,0.58
2022-12-03T17:20:06.345Z,0.58
2022-12-03T17:22:52.211Z,0.59
2022-12-03T17:25:38.025Z,0.60
2022-12-03T17:28:23.420Z,0.60
2022-12-03T17:31:09.203Z,0.60
2022-12-03T17:33:57.454Z,0.60
2022-12-03T17:36:42.789Z,0.62
2022-12-03T17:39:28.331Z,0.63
2022-12-03T17:42:14.114Z,0.63
2022-12-03T17:44:59.338Z,0.64
2022-12-03T17:47:44.806Z,0.66
2022-12-03T17:50:30.156Z,0.67
2022-12-03T17:53:15.559Z,0.67
2022-12-03T17:56:00.937Z,0.68
2022-12-03T17:58:46.749Z,0.68
2022-12-03T18:01:32.420Z,0.68
2022-12-03T18:04:18.047Z,0.70
2022-12-03T18:07:03.672Z,0.70
2022-12-03T18:09:49.082Z,0.70
2022-12-03T18:12:34.634Z,0.71
2022-12-03T18:15:20.682Z,0.72
2022-12-03T18:18:06.470Z,0.74
2022-12-03T18:20:53.853Z,0.72
2022-12-03T18:23:39.390Z,0.73
2022-12-03T18:26:25.735Z,0.74
2022-12-03T18:29:11.439Z,0.74
2022-12-03T18:31:56.961Z,0.75
2022-12-03T18:34:45.322Z,0.74
2022-12-03T18:37:33.211Z,0.75
2022-12-03T18:40:23.610Z,0.74
2022-12-03T18:43:14.896Z,0.77
2022-12-03T18:46:00.612Z,0.79
2022-12-03T18:48:48.278Z,0.79
2022-12-03T18:51:34.052Z,0.80
2022-12-03T18:54:19.691Z,0.79
2022-12-03T18:57:05.867Z,0.79
2022-12-03T18:59:51.082Z,0.80
2022-12-03T19:03:01.863Z,0.79
2022-12-03T19:05:42.448Z,0.81
2022-12-03T19:08:27.962Z,0.82
2022-12-03T19:11:15.590Z,0.82
2022-12-03T19:14:03.656Z,0.83
2022-12-03T19:16:50.471Z,0.83
2022-12-03T19:19:37.002Z,0.84
2022-12-03T19:22:24.213Z,0.84
2022-12-03T19:25:10.012Z,0.84
2022-12-03T19:27:58.034Z,0.85
2022-12-03T19:30:44.113Z,0.85
2022-12-03T19:33:30.017Z,0.87
2022-12-03T19:36:34.687Z,0.87
2022-12-03T19:39:20.280Z,0.87
2022-12-03T19:42:06.988Z,0.88
2022-12-03T19:44:52.803Z,0.88
2022-12-03T19:47:39.636Z,0.89
2022-12-03T19:50:27.196Z,0.89
2022-12-03T19:53:14.412Z,0.89
2022-12-03T19:56:05.536Z,0.89
2022-12-03T19:58:56.319Z,0.89
2022-12-03T20:01:44.232Z,0.91
2022-12-03T20:04:31.109Z,0.92
2022-12-03T20:07:16.841Z,0.92
2022-12-03T20:10:06.372Z,0.94
2022-12-03T20:12:52.204Z,0.94
2022-12-03T20:15:37.596Z,0.95
2022-12-03T20:18:23.982Z,0.96
2022-12-03T20:21:11.424Z,0.96
2022-12-03T20:23:56.994Z,0.97
2022-12-03T20:26:44.235Z,0.98
2022-12-03T20:29:31.210Z,1.00
2022-12-03T20:32:16.925Z,1.00
2022-12-03T20:35:03.466Z,1.00
2022-12-03T20:37:49.122Z,1.02
2022-12-03T20:40:39.896Z,1.02
2022-12-03T20:43:25.500Z,1.03
2022-12-03T20:46:19.597Z,1.03
2022-12-03T20:49:06.679Z,1.04
2022-12-03T20:51:52.085Z,1.05
2022-12-03T20:54:38.509Z,1.06
2022-12-03T20:57:24.455Z,1.07
2022-12-03T21:00:10.515Z,1.08
2022-12-03T21:02:58.469Z,1.09
2022-12-03T21:05:44.463Z,1.09
2022-12-03T21:08:41.071Z,1.11
2022-12-03T21:11:30.792Z,1.13
2022-12-03T21:14:16.257Z,1.14
2022-12-03T21:17:10.269Z,1.15
2022-12-03T21:19:56.612Z,1.14
2022-12-03T21:22:42.544Z,1.16
2022-12-03T21:25:29.060Z,1.16
2022-12-03T21:28:14.766Z,1.18
2022-12-03T21:31:02.495Z,1.20
2022-12-03T21:33:48.357Z,1.20
2022-12-03T21:36:33.947Z,1.21
2022-12-03T21:39:19.727Z,1.22
2022-12-03T21:42:34.453Z,1.22
2022-12-03T21:45:11.305Z,1.25
2022-12-03T21:47:57.054Z,1.25
2022-12-03T21:50:42.818Z,1.25
2022-12-03T21:53:29.451Z,1.26
2022-12-03T21:56:17.610Z,1.26
2022-12-03T21:59:03.576Z,1.25
2022-12-03T22:01:49.477Z,1.27
2022-12-03T22:04:35.050Z,1.27
2022-12-03T22:07:20.686Z,1.28
2022-12-03T22:10:08.845Z,1.28
2022-12-03T22:12:54.339Z,1.28
2022-12-03T22:15:40.357Z,1.28
2022-12-03T22:18:26.300Z,1.28
2022-12-03T22:21:17.760Z,1.29
2022-12-03T22:24:03.719Z,1.31
2022-12-03T22:26:49.960Z,1.32
2022-12-03T22:29:35.616Z,1.33
2022-12-03T22:32:21.139Z,1.35
2022-12-03T22:35:07.262Z,1.36
2022-12-03T22:37:52.545Z,1.36
2022-12-03T22:40:39.782Z,1.37
2022-12-03T22:43:25.256Z,1.36
2022-12-03T22:46:12.699Z,1.36
2022-12-03T22:49:03.472Z,1.37
2022-12-03T22:51:52.398Z,1.38
2022-12-03T22:54:37.937Z,1.38
2022-12-03T22:57:23.388Z,1.39
2022-12-03T23:00:10.684Z,1.40
2022-12-03T23:02:56.419Z,1.41
2022-12-03T23:05:42.045Z,1.40
2022-12-03T23:08:27.574Z,1.40
2022-12-03T23:11:13.744Z,1.41
2022-12-03T23:13:59.384Z,1.43
2022-12-03T23:16:44.889Z,1.44
2022-12-03T23:19:30.714Z,1.45
2022-12-03T23:22:16.343Z,1.46
2022-12-03T23:25:02.106Z,1.46
2022-12-03T23:27:47.882Z,1.46
2022-12-03T23:30:39.788Z,1.48
2022-12-03T23:33:25.689Z,1.49
2022-12-03T23:36:11.674Z,1.50
2022-12-03T23:38:57.914Z,1.51
2022-12-03T23:41:43.221Z,1.52
2022-12-03T23:44:28.759Z,1.53
2022-12-03T23:47:15.081Z,1.53
2022-12-03T23:50:00.828Z,1.54
2022-12-03T23:52:46.065Z,1.55
2022-12-03T23:55:31.795Z,1.55
2022-12-03T23:58:17.596Z,1.56
